Time;durP1;ratioP1;P1;durP2;ratioP2;P2;SDS_P1;SDS_P2;PMS_P1;PMS_P2;Temp;Humidity;BMP_temperature;BMP_pressure;BME280_temperature;BME280_humidity;BME280_pressure;Samples;Min_cycle;Max_cycle;Signal;HPM_P1;HPM_P2
2022/05/18 05:03:14;;;;;;;7.68;4.30;;;16.00;99.90;;;;;;6116120;23;20018;-81
2022/05/18 05:05:43;;;;;;;7.20;4.88;;;16.20;99.90;;;;;;6108680;23;20002;-83
2022/05/18 05:08:09;;;;;;;6.70;4.10;;;16.30;99.90;;;;;;6108532;23;20018;-83
2022/05/18 05:10:43;;;;;;;8.32;4.80;;;16.30;99.90;;;;;;6108384;23;20164;-83
2022/05/18 05:13:18;;;;;;;8.57;4.45;;;16.40;99.70;;;;;;6107967;23;20010;-82
2022/05/18 05:37:49;;;;;;;10.45;5.20;;;17.30;96.90;;;;;;6103472;23;20024;-83
2022/05/18 05:55:55;;;;;;;9.65;4.57;;;18.20;94.30;;;;;;6015550;23;20064;-80
2022/05/18 06:02:02;;;;;;;11.10;5.05;;;18.30;93.50;;;;;;6016398;23;20026;-82
2022/05/18 06:04:55;;;;;;;13.73;5.13;;;18.60;93.70;;;;;;6021758;23;20196;-82
2022/05/18 06:07:20;;;;;;;12.98;5.13;;;18.70;93.50;;;;;;6021679;23;20027;-83
2022/05/18 06:10:08;;;;;;;10.00;4.70;;;18.80;93.00;;;;;;6021491;23;20011;-83
2022/05/18 06:12:34;;;;;;;11.32;4.78;;;18.90;92.50;;;;;;6053688;23;20035;-84
2022/05/18 06:15:40;;;;;;;9.40;5.30;;;18.90;92.20;;;;;;6077491;23;20136;-83
2022/05/18 06:18:11;;;;;;;10.23;4.60;;;19.00;92.20;;;;;;6075512;23;20010;-83
2022/05/18 06:20:37;;;;;;;11.30;5.55;;;19.10;92.00;;;;;;6089635;23;20041;-83
2022/05/18 06:23:10;;;;;;;9.88;5.68;;;19.10;91.80;;;;;;6112293;23;20176;-82
2022/05/18 06:25:37;;;;;;;10.48;5.25;;;19.30;91.80;;;;;;6201385;23;20008;-83
2022/05/18 06:28:41;;;;;;;11.88;4.97;;;19.40;91.60;;;;;;6225751;23;20007;-82
2022/05/18 06:31:07;;;;;;;10.82;4.70;;;19.60;91.00;;;;;;6199430;23;20069;-81
2022/05/18 06:33:35;;;;;;;11.55;4.88;;;19.70;90.80;;;;;;6200247;23;20102;-80
2022/05/18 06:36:00;;;;;;;9.97;4.70;;;19.60;90.70;;;;;;6199698;23;20004;-81
2022/05/18 06:38:26;;;;;;;9.95;4.30;;;19.70;90.70;;;;;;6201363;23;20039;-81
2022/05/18 06:43:42;;;;;;;8.68;4.35;;;20.00;90.20;;;;;;6225838;23;20294;-80
2022/05/18 06:46:09;;;;;;;7.65;3.85;;;20.10;90.10;;;;;;6199066;23;20019;-81
2022/05/18 06:48:35;;;;;;;10.25;4.13;;;20.20;89.60;;;;;;6200988;23;20064;-81
2022/05/18 06:51:01;;;;;;;7.05;4.15;;;20.40;89.30;;;;;;6225992;23;20167;-81
2022/05/18 06:53:27;;;;;;;9.88;4.05;;;20.40;88.90;;;;;;6200628;23;20015;-80
2022/05/18 06:55:58;;;;;;;9.30;4.93;;;20.60;88.50;;;;;;6200834;23;20007;-81
2022/05/18 06:58:24;;;;;;;8.52;3.78;;;20.70;88.30;;;;;;6227901;23;20305;-82
2022/05/18 07:01:08;;;;;;;10.70;4.80;;;20.90;88.10;;;;;;6226834;23;20062;-81
2022/05/18 07:03:47;;;;;;;10.50;4.00;;;21.10;87.10;;;;;;6202114;23;20066;-80
2022/05/18 07:06:17;;;;;;;8.32;3.70;;;21.30;86.40;;;;;;6200465;23;20332;-80
2022/05/18 07:08:43;;;;;;;8.68;3.35;;;21.40;85.30;;;;;;6202374;23;20290;-81
2022/05/18 07:11:37;;;;;;;7.22;3.08;;;21.50;84.80;;;;;;6227235;23;20336;-82
2022/05/18 07:14:13;;;;;;;9.98;3.38;;;21.60;84.60;;;;;;6203311;23;20009;-81
2022/05/18 07:16:40;;;;;;;8.90;3.38;;;21.80;84.30;;;;;;6181789;23;20012;-81
2022/05/18 07:24:46;;;;;;;8.00;3.15;;;22.20;82.20;;;;;;6219231;23;20036;-81
2022/05/18 07:27:12;;;;;;;8.73;2.90;;;22.30;82.20;;;;;;6178551;23;20156;-81
2022/05/18 07:29:41;;;;;;;6.90;2.95;;;22.40;81.00;;;;;;6201942;23;20023;-81
2022/05/18 07:32:38;;;;;;;7.97;3.10;;;22.40;80.20;;;;;;6195776;23;20008;-81
2022/05/18 07:35:04;;;;;;;7.45;3.28;;;22.50;79.50;;;;;;6172121;23;20285;-81
2022/05/18 07:38:10;;;;;;;7.18;2.95;;;22.70;79.00;;;;;;6172450;23;20005;-81
2022/05/18 07:40:36;;;;;;;6.47;3.30;;;22.60;78.80;;;;;;6224042;23;20063;-80
2022/05/18 07:43:02;;;;;;;8.40;2.97;;;22.60;78.40;;;;;;6171859;23;20015;-82
2022/05/18 07:45:29;;;;;;;5.63;2.95;;;22.70;78.50;;;;;;6171265;23;20120;-81
2022/05/18 07:48:38;;;;;;;6.93;3.05;;;22.80;78.30;;;;;;6173354;23;20286;-84
2022/05/18 07:51:04;;;;;;;7.97;3.25;;;23.00;78.00;;;;;;6172588;23;20008;-83
2022/05/18 07:53:39;;;;;;;6.80;3.03;;;23.30;76.50;;;;;;6198117;23;20067;-84
2022/05/18 07:56:05;;;;;;;4.93;2.22;;;23.30;75.50;;;;;;6173676;23;20004;-85
2022/05/18 07:58:31;;;;;;;7.18;2.80;;;23.40;75.50;;;;;;6198777;23;20341;-83
2022/05/18 08:01:12;;;;;;;5.63;2.55;;;23.50;75.10;;;;;;6198390;23;20064;-84
2022/05/18 08:04:11;;;;;;;7.50;2.42;;;23.70;74.40;;;;;;6143580;23;20039;-85
2022/05/18 08:06:38;;;;;;;7.10;2.60;;;23.70;74.00;;;;;;6144182;23;20175;-83
2022/05/18 08:09:07;;;;;;;6.30;2.63;;;23.70;74.10;;;;;;6167700;23;20059;-85
2022/05/18 08:17:07;;;;;;;10.65;2.80;;;24.10;72.80;;;;;;6194100;23;20013;-85
2022/05/18 08:20:27;;;;;;;7.88;2.38;;;24.20;73.00;;;;;;6144222;23;20009;-85
2022/05/18 08:23:19;;;;;;;14.55;3.08;;;24.40;72.90;;;;;;6168787;23;19997;-87
2022/05/18 08:25:48;;;;;;;7.22;2.70;;;24.50;71.90;;;;;;6169293;23;20005;-84
2022/05/18 08:29:08;;;;;;;6.18;2.58;;;24.50;71.50;;;;;;6145933;23;20008;-84
2022/05/18 08:31:41;;;;;;;6.82;2.28;;;24.50;71.80;;;;;;6170981;23;20020;-85
2022/05/18 08:34:41;;;;;;;6.85;2.50;;;24.50;71.90;;;;;;6145929;23;20345;-83
2022/05/18 08:37:07;;;;;;;4.43;2.17;;;24.60;71.80;;;;;;6146611;23;20168;-84
2022/05/18 08:39:58;;;;;;;4.82;2.20;;;24.50;71.20;;;;;;6145102;23;20043;-85
2022/05/18 08:42:41;;;;;;;4.78;2.20;;;24.60;71.00;;;;;;6145146;23;20001;-86
2022/05/18 08:45:08;;;;;;;4.45;2.10;;;24.60;70.50;;;;;;6167511;23;20005;-86
2022/05/18 08:47:52;;;;;;;7.03;2.30;;;24.70;71.00;;;;;;6144175;23;20048;-85
2022/05/18 08:50:59;;;;;;;4.40;2.50;;;24.90;70.60;;;;;;6168303;23;20005;-84
2022/05/18 09:04:24;;;;;;;3.85;2.22;;;25.10;70.10;;;;;;6166800;23;20352;-86
2022/05/18 09:15:17;;;;;;;6.65;2.22;;;25.50;69.00;;;;;;6193578;23;20016;-87
2022/05/18 09:18:23;;;;;;;4.72;2.25;;;25.80;67.90;;;;;;6138381;23;20373;-87
2022/05/18 09:21:43;;;;;;;5.25;2.15;;;25.70;68.00;;;;;;6143461;23;20193;-85
2022/05/18 09:24:47;;;;;;;4.80;2.30;;;25.70;68.10;;;;;;6167218;23;20056;-84
2022/05/18 09:39:19;;;;;;;4.90;2.10;;;25.70;65.30;;;;;;6016698;23;20067;-85
2022/05/18 09:42:29;;;;;;;5.38;2.40;;;25.80;64.70;;;;;;5995296;23;20278;-85
2022/05/18 09:45:16;;;;;;;4.10;1.70;;;25.90;64.80;;;;;;6010225;23;20066;-84
2022/05/18 09:48:46;;;;;;;3.58;1.88;;;26.00;63.10;;;;;;6012221;23;20051;-85
2022/05/18 09:51:12;;;;;;;8.00;2.20;;;26.10;64.40;;;;;;5978913;23;20340;-84
2022/05/18 09:53:41;;;;;;;3.45;1.88;;;26.20;65.40;;;;;;5995879;23;20068;-83
2022/05/18 09:56:24;;;;;;;4.10;1.90;;;26.20;64.10;;;;;;5994142;23;20034;-86
2022/05/18 09:59:17;;;;;;;3.20;1.73;;;26.40;63.70;;;;;;5994416;23;20008;-85
2022/05/18 10:08:31;;;;;;;4.10;1.40;;;26.50;61.10;;;;;;6152202;23;20009;-86
2022/05/18 10:11:19;;;;;;;3.15;1.55;;;26.70;61.50;;;;;;6143665;23;20016;-84
2022/05/18 10:14:30;;;;;;;4.63;1.90;;;26.80;62.70;;;;;;6168244;23;20054;-85
2022/05/18 10:17:19;;;;;;;4.43;1.80;;;26.80;62.80;;;;;;6136303;23;20013;-85
2022/05/18 10:20:11;;;;;;;3.70;1.65;;;26.90;62.40;;;;;;6141988;23;20102;-85
2022/05/18 10:22:44;;;;;;;3.55;1.90;;;27.00;62.80;;;;;;6143205;23;20056;-85
2022/05/18 10:25:25;;;;;;;3.95;1.67;;;27.30;62.70;;;;;;6124554;23;20005;-85
2022/05/18 10:28:01;;;;;;;3.80;1.52;;;27.40;61.70;;;;;;6138488;23;20306;-85
2022/05/18 10:34:33;;;;;;;3.80;1.90;;;27.10;61.30;;;;;;6126059;23;20028;-86
2022/05/18 10:37:02;;;;;;;4.50;1.70;;;27.20;60.90;;;;;;6116486;23;20005;-84
2022/05/18 10:39:46;;;;;;;3.25;1.65;;;27.30;61.30;;;;;;6140465;23;19996;-83
2022/05/18 10:42:23;;;;;;;2.83;1.42;;;27.50;61.10;;;;;;6115773;23;20024;-84
2022/05/18 10:45:06;;;;;;;4.10;1.65;;;27.60;59.90;;;;;;6116947;23;20013;-84
2022/05/18 10:47:38;;;;;;;8.60;2.13;;;27.70;59.70;;;;;;6101419;23;20392;-84
2022/05/18 10:50:23;;;;;;;3.15;1.27;;;27.70;60.30;;;;;;6115770;23;20017;-83
2022/05/18 10:52:55;;;;;;;7.38;1.60;;;27.60;58.90;;;;;;6115874;23;20029;-84
2022/05/18 10:55:28;;;;;;;3.40;1.50;;;27.70;60.30;;;;;;6115433;23;20005;-85
2022/05/18 10:58:38;;;;;;;3.60;1.50;;;28.10;59.30;;;;;;6142275;23;20002;-84
2022/05/18 11:01:54;;;;;;;;;;;;;;;;;;;;;
2022/05/18 11:08:23;;;;;;;;;;;28.40;56.20;;;;;;6047252;23;20034;-85
2022/05/18 11:10:59;;;;;;;4.20;1.38;;;28.40;55.20;;;;;;6045617;23;19925;-85
2022/05/18 11:13:50;;;;;;;5.78;1.45;;;28.40;56.40;;;;;;6020251;23;20015;-85
2022/05/18 11:16:17;;;;;;;3.33;1.23;;;28.50;56.00;;;;;;6022281;23;20015;-84
2022/05/18 11:18:52;;;;;;;4.53;1.08;;;28.40;55.00;;;;;;6023353;23;20424;-85
2022/05/18 11:44:29;;;;;;;3.58;1.10;;;33.00;52.70;;;;;;6016698;23;20325;-84
2022/05/18 11:47:04;;;;;;;3.65;1.38;;;34.60;51.40;;;;;;5992133;23;20115;-85
2022/05/18 11:49:53;;;;;;;4.32;1.40;;;35.60;50.00;;;;;;5997486;23;20011;-84
2022/05/18 11:52:43;;;;;;;3.65;1.17;;;36.20;48.70;;;;;;6045269;23;20018;-84
2022/05/18 11:59:30;;;;;;;3.80;1.13;;;36.50;46.90;;;;;;6052578;23;20205;-83
2022/05/18 12:02:22;;;;;;;2.42;0.95;;;37.30;46.40;;;;;;6048099;23;20033;-80
2022/05/18 12:05:26;;;;;;;2.03;1.15;;;38.30;45.80;;;;;;6144520;23;20053;-82
2022/05/18 12:10:46;;;;;;;2.22;0.90;;;39.60;44.60;;;;;;6163520;23;20028;-81
2022/05/18 12:13:49;;;;;;;3.92;1.02;;;39.20;44.40;;;;;;6167361;23;20013;-82
2022/05/18 12:16:48;;;;;;;4.77;1.10;;;39.00;45.40;;;;;;6145185;23;20036;-81
2022/05/18 12:19:30;;;;;;;3.22;1.10;;;39.30;45.10;;;;;;6140511;23;20382;-82
2022/05/18 12:22:13;;;;;;;4.38;1.48;;;39.20;45.30;;;;;;6101376;23;20065;-84
2022/05/18 12:28:37;;;;;;;2.20;1.00;;;39.60;45.60;;;;;;6100758;23;20066;-85
2022/05/18 12:31:04;;;;;;;1.92;1.13;;;41.40;44.40;;;;;;6069971;23;20255;-84
2022/05/18 12:33:41;;;;;;;3.25;1.02;;;41.80;43.90;;;;;;6052563;23;20014;-83
2022/05/18 12:36:25;;;;;;;3.85;1.25;;;41.10;43.40;;;;;;6053097;23;20012;-82
2022/05/18 12:39:06;;;;;;;2.90;1.30;;;40.80;43.60;;;;;;6053682;23;20006;-83
2022/05/18 12:41:58;;;;;;;5.00;1.67;;;41.40;43.20;;;;;;6076700;23;20058;-82
2022/05/18 12:44:49;;;;;;;1.80;0.93;;;41.30;42.90;;;;;;6076801;23;20061;-81
2022/05/18 13:14:01;;;;;;;2.10;1.00;;;44.00;41.40;;;;;;6126315;23;20036;-81
2022/05/18 13:16:54;;;;;;;4.78;1.27;;;43.60;40.70;;;;;;6168571;23;20392;-81
2022/05/18 13:19:24;;;;;;;2.95;1.27;;;43.50;41.50;;;;;;6221383;23;20064;-80
2022/05/18 13:22:11;;;;;;;2.95;1.00;;;44.00;41.00;;;;;;6195182;23;20001;-79
2022/05/18 13:36:53;;;;;;;2.72;1.10;;;44.90;40.20;;;;;;6217730;23;20024;-79
2022/05/18 13:39:26;;;;;;;2.75;1.05;;;44.60;39.90;;;;;;6194583;23;20012;-80
2022/05/18 13:41:52;;;;;;;2.40;1.05;;;43.90;40.30;;;;;;6170748;23;20011;-80
2022/05/18 13:44:23;;;;;;;2.20;1.00;;;45.70;40.50;;;;;;6221105;23;20182;-82
2022/05/18 13:59:08;;;;;;;2.13;0.90;;;44.50;40.10;;;;;;6171669;23;20040;-81
2022/05/18 14:01:45;;;;;;;2.53;1.17;;;45.60;39.70;;;;;;6210506;23;20023;-81
2022/05/18 14:04:36;;;;;;;2.55;1.00;;;46.20;39.40;;;;;;6170410;23;20050;-81
2022/05/18 14:07:06;;;;;;;1.55;0.73;;;45.80;38.80;;;;;;6204632;23;20051;-83
2022/05/18 14:09:38;;;;;;;1.88;0.77;;;47.70;39.10;;;;;;6195050;23;20000;-81
2022/05/18 14:12:06;;;;;;;2.30;0.82;;;48.40;38.60;;;;;;6222224;23;20064;-81
2022/05/18 14:14:33;;;;;;;2.17;0.80;;;46.90;38.30;;;;;;6169207;23;20058;-80
2022/05/18 14:17:20;;;;;;;1.67;0.90;;;48.00;38.30;;;;;;6193495;23;20206;-81
2022/05/18 14:19:51;;;;;;;2.88;0.80;;;48.80;37.70;;;;;;6170517;23;20016;-81
2022/05/18 14:22:19;;;;;;;2.45;1.08;;;48.60;38.10;;;;;;6195680;23;20384;-80
2022/05/18 14:24:57;;;;;;;1.35;0.85;;;48.00;38.50;;;;;;6221724;23;20233;-80
2022/05/18 14:27:29;;;;;;;2.05;0.75;;;47.50;38.30;;;;;;6195129;23;20061;-81
2022/05/18 14:30:00;;;;;;;3.72;1.10;;;47.10;38.70;;;;;;6222047;23;20238;-80
2022/05/18 14:32:42;;;;;;;1.80;0.80;;;46.70;39.10;;;;;;6168695;23;20074;-79
2022/05/18 14:35:12;;;;;;;2.63;0.70;;;45.90;38.90;;;;;;6195288;23;20009;-79
2022/05/18 14:41:05;;;;;;;2.35;1.20;;;47.30;38.10;;;;;;6221920;23;20009;-80
2022/05/18 14:43:31;;;;;;;1.70;0.93;;;48.00;38.00;;;;;;6220907;23;20005;-80
2022/05/18 14:46:16;;;;;;;3.73;0.97;;;47.90;37.60;;;;;;6220848;23;20013;-80
2022/05/18 14:48:47;;;;;;;2.50;1.17;;;47.30;38.50;;;;;;6221247;23;20056;-81
2022/05/18 14:51:47;;;;;;;1.77;0.80;;;48.00;38.50;;;;;;6170041;23;20203;-80
2022/05/18 14:54:23;;;;;;;4.30;2.97;;;47.60;38.00;;;;;;6046940;23;20295;-78
2022/05/18 14:56:54;;;;;;;5.80;3.70;;;45.90;38.90;;;;;;6071074;23;20046;-80
2022/05/18 14:59:24;;;;;;;3.20;1.17;;;45.40;38.90;;;;;;6071030;23;20050;-79
2022/05/18 15:01:58;;;;;;;3.30;1.73;;;45.10;39.00;;;;;;6046152;23;20332;-80
2022/05/18 15:04:28;;;;;;;3.05;1.40;;;45.70;39.20;;;;;;6071005;23;20018;-80
2022/05/18 15:07:06;;;;;;;3.42;1.50;;;46.30;38.80;;;;;;6047301;23;20119;-81
2022/05/18 15:13:17;;;;;;;3.65;1.92;;;46.60;38.70;;;;;;6071408;23;20029;-79
2022/05/18 15:15:56;;;;;;;6.55;1.92;;;47.90;38.40;;;;;;6071499;23;20078;-78
2022/05/18 15:18:40;;;;;;;3.05;1.90;;;47.40;37.80;;;;;;6074353;23;20011;-79
2022/05/18 15:21:32;;;;;;;5.50;3.65;;;47.10;38.30;;;;;;6074135;23;20031;-78
2022/05/18 15:24:00;;;;;;;3.70;1.40;;;46.90;38.30;;;;;;6074482;23;20073;-80
2022/05/18 15:26:48;;;;;;;8.90;1.95;;;46.10;39.00;;;;;;6074350;23;20062;-79
2022/05/18 15:29:20;;;;;;;3.67;1.63;;;46.40;39.20;;;;;;6073115;23;20007;-78
2022/05/18 15:32:11;;;;;;;4.57;1.60;;;45.70;39.40;;;;;;6176854;23;20040;-79
2022/05/18 15:34:42;;;;;;;2.95;1.13;;;46.30;39.30;;;;;;6142267;23;20025;-79
2022/05/18 15:37:12;;;;;;;3.08;1.20;;;47.20;38.40;;;;;;6193734;23;20001;-79
2022/05/18 15:39:38;;;;;;;2.95;1.45;;;47.10;38.80;;;;;;6193235;23;20001;-80
2022/05/18 15:42:06;;;;;;;3.30;1.20;;;46.30;38.70;;;;;;6167985;23;20055;-81
2022/05/18 15:45:15;;;;;;;3.28;1.30;;;46.60;38.70;;;;;;6192552;23;20005;-83
2022/05/18 15:48:01;;;;;;;3.17;1.10;;;46.90;38.90;;;;;;6191721;23;20024;-82
2022/05/18 15:50:35;;;;;;;2.10;1.02;;;46.40;38.60;;;;;;6142092;23;20279;-79
2022/05/18 15:53:02;;;;;;;2.20;1.05;;;46.40;38.70;;;;;;6193341;23;20057;-81
2022/05/18 15:55:29;;;;;;;2.95;1.10;;;46.80;38.40;;;;;;6193400;23;20009;-82
2022/05/18 15:57:57;;;;;;;3.50;1.20;;;46.90;38.40;;;;;;6173941;23;20255;-81
2022/05/18 16:00:26;;;;;;;2.83;1.05;;;46.70;38.50;;;;;;6223915;23;20016;-81
2022/05/18 16:02:52;;;;;;;4.72;1.05;;;45.40;38.90;;;;;;6198183;23;20031;-81
2022/05/18 16:05:19;;;;;;;3.40;1.40;;;44.20;39.70;;;;;;6233182;23;20000;-79
2022/05/18 16:07:47;;;;;;;2.75;1.20;;;44.00;40.00;;;;;;6206631;23;20001;-79
2022/05/18 16:10:15;;;;;;;5.53;1.38;;;43.70;40.30;;;;;;6203671;23;20046;-81
2022/05/18 16:12:43;;;;;;;3.42;1.15;;;44.00;40.20;;;;;;6197698;23;19992;-81
2022/05/18 16:15:10;;;;;;;2.22;1.05;;;44.60;40.00;;;;;;6172461;23;20075;-81
2022/05/18 16:17:36;;;;;;;1.77;1.00;;;44.50;39.90;;;;;;6197811;23;20059;-81
2022/05/18 16:20:04;;;;;;;3.17;1.10;;;44.90;39.80;;;;;;6198550;23;20004;-82
2022/05/18 17:59:57;;;;;;;3.58;1.80;;;36.10;47.20;;;;;;6150239;23;20018;-82
2022/05/18 18:02:30;;;;;;;5.22;2.00;;;35.50;47.80;;;;;;6223358;23;20038;-80
2022/05/18 18:04:56;;;;;;;6.40;1.58;;;34.40;48.90;;;;;;6224062;23;20005;-82
2022/05/18 18:07:26;;;;;;;4.15;1.90;;;33.20;50.50;;;;;;6198232;23;20012;-79
2022/05/18 18:09:52;;;;;;;5.80;2.30;;;32.20;51.70;;;;;;6204173;23;20060;-80
2022/05/18 18:12:18;;;;;;;4.85;1.85;;;31.50;53.70;;;;;;6230720;23;20001;-81
2022/05/18 18:14:44;;;;;;;3.42;2.10;;;31.00;53.70;;;;;;6202965;23;20008;-81
2022/05/18 18:17:27;;;;;;;4.45;2.53;;;30.50;54.50;;;;;;6224387;23;20281;-80
2022/05/18 19:15:20;;;;;;;6.60;2.35;;;25.50;63.90;;;;;;6116843;23;20086;-81
2022/05/18 19:21:18;;;;;;;4.80;2.15;;;25.30;64.40;;;;;;6085444;23;20049;-81
2022/05/18 19:26:42;;;;;;;4.95;1.80;;;25.10;65.20;;;;;;6127662;23;20006;-82
2022/05/18 19:29:24;;;;;;;5.70;2.37;;;24.90;65.40;;;;;;6080441;23;20022;-82
2022/05/18 19:31:50;;;;;;;6.85;2.65;;;24.90;65.90;;;;;;6104958;23;20010;-81
2022/05/18 20:03:33;;;;;;;4.65;2.00;;;23.80;68.90;;;;;;6159411;23;19912;-83
2022/05/18 20:06:03;;;;;;;5.53;2.35;;;23.70;69.20;;;;;;6136334;23;20013;-82
2022/05/18 20:32:23;;;;;;;3.60;2.30;;;23.00;71.50;;;;;;6089798;23;20037;-81
2022/05/18 20:34:49;;;;;;;4.13;2.67;;;22.90;71.70;;;;;;6168024;23;20025;-82
2022/05/18 21:57:03;;;;;;;4.60;2.20;;;21.60;76.30;;;;;;6141804;22;20020;-79
2022/05/18 21:59:40;;;;;;;4.57;1.90;;;21.50;75.60;;;;;;6206263;23;20008;-80
2022/05/18 22:02:11;;;;;;;3.83;2.10;;;21.40;75.70;;;;;;6205459;23;20070;-80
2022/05/18 22:04:41;;;;;;;4.05;1.70;;;21.30;75.80;;;;;;6177576;23;20214;-81
2022/05/18 22:07:10;;;;;;;3.88;2.05;;;21.30;76.30;;;;;;6200131;23;20005;-81
2022/05/18 22:13:24;;;;;;;4.05;2.10;;;21.10;76.20;;;;;;6223016;23;20015;-80
2022/05/18 22:15:50;;;;;;;3.45;2.10;;;21.10;76.50;;;;;;6196674;23;20112;-81
2022/05/18 22:18:24;;;;;;;5.20;2.10;;;21.00;76.60;;;;;;6197175;23;20011;-84
2022/05/18 22:20:50;;;;;;;3.55;2.20;;;20.90;76.70;;;;;;6196621;23;20000;-81
2022/05/18 22:23:16;;;;;;;5.22;2.17;;;20.90;76.60;;;;;;6197352;23;20344;-81
2022/05/18 22:25:44;;;;;;;3.00;2.22;;;20.80;77.10;;;;;;6196718;23;20000;-81
2022/05/18 22:28:15;;;;;;;3.80;2.13;;;20.70;77.40;;;;;;6224427;23;20004;-81
2022/05/18 22:30:41;;;;;;;3.88;2.10;;;20.60;77.50;;;;;;6197608;23;20028;-82
2022/05/18 22:33:07;;;;;;;4.85;2.17;;;20.60;77.90;;;;;;6226198;23;20283;-80
2022/05/18 22:35:33;;;;;;;4.63;1.98;;;20.50;78.00;;;;;;6198945;23;20012;-81
2022/05/18 22:37:59;;;;;;;3.78;2.13;;;20.50;78.40;;;;;;6225849;23;20187;-82
2022/05/18 22:40:26;;;;;;;3.95;2.08;;;20.40;78.50;;;;;;6173781;23;20004;-81
2022/05/18 22:42:55;;;;;;;5.35;2.35;;;20.30;78.60;;;;;;6225949;23;19993;-82
2022/05/18 22:45:24;;;;;;;5.07;2.33;;;20.20;78.50;;;;;;6197629;23;20339;-82
2022/05/18 22:47:51;;;;;;;4.80;2.20;;;20.10;78.70;;;;;;6225280;23;20146;-83
